Joliet, Illinois
Current Conditions -  °F | °C
As of 8:15 PM on Friday 24 Oct 2014 (Local Time) from KJOT Reporting Station
Scattered Clouds Scattered Clouds  
Wind Chill: 56°   Ceiling: Unl
Heat Index: 56°   Visibility: 10mi
Dew Point: 46°   Wind: 0mph
Humidity: 68%   Direction: NA
Pressure: 29.96"   Gusts: NA
Location:  41.52°N, 88.08°W
Report Text: KJOT 250115Z AUTO 00000KT 10SM SCT090 13/08 A2996 RMK AO2 T01330075
Loading
Personal Weather Stations






























Interactive Weather Map
Tropical Storm Tracking
New forecast layout! Learn more

10-Day Weather Forecast

Advertisements
Track Severe Weather on mobile